Time,TemperatureF,DewpointF,PressureIn,WindDirection,WindDirectionDegrees,WindSpeedMPH,WindSpeedGustMPH,Humidity,HourlyPrecipIn,Conditions,Clouds,dailyrainin,SoftwareType,DateUTC
2013-07-02 00:05:00,47.8,46.2,30.07,ESE,118,2.0,3.0,94,0.00,,,0.47,Wunderground v.1.15,2013-07-02 06:05:00,
2013-07-02 00:06:00,47.8,46.4,30.07,SE,124,2.0,3.0,95,0.00,,,0.47,Wunderground v.1.15,2013-07-02 06:06:00,
2013-07-02 00:12:00,47.9,46.5,30.07,ESE,119,1.0,2.0,95,0.00,,,0.47,Wunderground v.1.15,2013-07-02 06:12:00,
2013-07-02 00:18:00,48.0,46.6,30.07,ESE,102,0.0,2.0,95,0.00,,,0.00,Wunderground v.1.15,2013-07-02 06:18:00,
2013-07-02 00:23:00,47.9,46.3,30.07,ESE,110,1.0,1.0,94,0.00,,,0.00,Wunderground v.1.15,2013-07-02 06:23:00,
2013-07-02 00:29:00,47.9,46.3,30.07,ESE,117,1.0,1.0,94,0.00,,,0.00,Wunderground v.1.15,2013-07-02 06:29:00,
2013-07-02 00:35:00,47.9,46.3,30.07,East,100,1.0,1.0,94,0.00,,,0.00,Wunderground v.1.15,2013-07-02 06:35:00,
2013-07-02 00:40:00,47.9,46.3,30.07,East,100,0.0,0.0,94,0.00,,,0.00,Wunderground v.1.15,2013-07-02 06:40:00,
2013-07-02 00:45:00,47.5,45.9,30.07,East,100,0.0,0.0,94,0.00,,,0.00,Wunderground v.1.15,2013-07-02 06:45:00,
2013-07-02 00:51:00,47.1,45.5,30.06,ESE,107,0.0,2.0,94,0.00,,,0.00,Wunderground v.1.15,2013-07-02 06:51:00,
2013-07-02 00:56:00,47.2,45.8,30.06,SE,127,1.0,2.0,95,0.00,,,0.00,Wunderground v.1.15,2013-07-02 06:56:00,
2013-07-02 01:02:00,47.3,45.7,30.06,SSE,155,1.0,3.0,94,0.00,,,0.00,Wunderground v.1.15,2013-07-02 07:02:00,
2013-07-02 01:07:00,47.2,45.6,30.06,ESE,111,1.0,1.0,94,0.00,,,0.00,Wunderground v.1.15,2013-07-02 07:07:00,
2013-07-02 01:12:00,47.4,45.8,30.06,ESE,113,0.0,2.0,94,0.00,,,0.00,Wunderground v.1.15,2013-07-02 07:12:00,
2013-07-02 01:18:00,47.1,45.5,30.06,ESE,109,0.0,1.0,94,0.00,,,0.00,Wunderground v.1.15,2013-07-02 07:18:00,
2013-07-02 01:23:00,47.0,45.4,30.06,ESE,108,1.0,1.0,94,0.00,,,0.00,Wunderground v.1.15,2013-07-02 07:23:00,
2013-07-02 01:28:00,47.0,45.4,30.06,SE,127,1.0,2.0,94,0.00,,,0.00,Wunderground v.1.15,2013-07-02 07:28:00,
2013-07-02 01:35:00,47.3,45.4,30.05,ESE,105,1.0,3.0,93,0.00,,,0.00,Wunderground v.1.15,2013-07-02 07:35:00,
2013-07-02 01:40:00,47.5,45.6,30.05,ESE,114,1.0,1.0,93,0.00,,,0.00,Wunderground v.1.15,2013-07-02 07:40:00,
2013-07-02 01:46:00,47.0,45.1,30.05,ESE,114,0.0,1.0,93,0.00,,,0.00,Wunderground v.1.15,2013-07-02 07:46:00,
2013-07-02 01:51:00,46.8,45.2,30.05,ESE,117,1.0,1.0,94,0.00,,,0.00,Wunderground v.1.15,2013-07-02 07:51:00,
2013-07-02 01:57:00,46.8,45.2,30.05,ESE,122,1.0,1.0,94,0.00,,,0.00,Wunderground v.1.15,2013-07-02 07:57:00,
2013-07-02 02:02:00,46.8,45.2,30.05,ESE,120,1.0,4.0,94,0.00,,,0.00,Wunderground v.1.15,2013-07-02 08:02:00,
2013-07-02 02:07:00,47.2,45.3,30.04,East,99,2.0,2.0,93,0.00,,,0.00,Wunderground v.1.15,2013-07-02 08:07:00,
2013-07-02 02:13:00,47.3,45.1,30.04,SSE,149,1.0,2.0,92,0.00,,,0.00,Wunderground v.1.15,2013-07-02 08:13:00,
2013-07-02 02:19:00,46.7,44.8,30.05,ESE,105,0.0,2.0,93,0.00,,,0.01,Wunderground v.1.15,2013-07-02 08:19:00,
2013-07-02 02:24:00,46.6,45.0,30.04,ESE,111,1.0,2.0,94,0.00,,,0.01,Wunderground v.1.15,2013-07-02 08:24:00,
2013-07-02 02:30:00,46.3,44.4,30.04,ESE,117,1.0,1.0,93,0.00,,,0.01,Wunderground v.1.15,2013-07-02 08:30:00,
2013-07-02 02:35:00,46.1,44.5,30.05,ESE,116,1.0,1.0,94,0.00,,,0.01,Wunderground v.1.15,2013-07-02 08:35:00,
2013-07-02 02:40:00,46.1,44.5,30.04,ESE,116,0.0,1.0,94,0.00,,,0.01,Wunderground v.1.15,2013-07-02 08:40:00,
2013-07-02 02:46:00,46.0,44.4,30.04,ESE,117,0.0,1.0,94,0.00,,,0.01,Wunderground v.1.15,2013-07-02 08:46:00,
2013-07-02 02:51:00,45.6,44.0,30.04,SE,127,1.0,1.0,94,0.00,,,0.01,Wunderground v.1.15,2013-07-02 08:51:00,
2013-07-02 02:57:00,45.7,44.4,30.04,ESE,108,1.0,1.0,95,0.00,,,0.01,Wunderground v.1.15,2013-07-02 08:57:00,
2013-07-02 03:02:00,45.8,44.2,30.05,ESE,108,1.0,1.0,94,0.00,,,0.01,Wunderground v.1.15,2013-07-02 09:02:00,
2013-07-02 03:07:00,45.6,44.0,30.04,ESE,114,0.0,2.0,94,0.00,,,0.01,Wunderground v.1.15,2013-07-02 09:07:00,
2013-07-02 03:13:00,46.3,44.1,30.04,ESE,120,1.0,2.0,92,0.00,,,0.01,Wunderground v.1.15,2013-07-02 09:13:00,
2013-07-02 03:18:00,46.3,43.8,30.04,ESE,103,1.0,1.0,91,0.00,,,0.01,Wunderground v.1.15,2013-07-02 09:18:00,
2013-07-02 03:24:00,46.3,43.8,30.04,ESE,122,1.0,1.0,91,0.00,,,0.01,Wunderground v.1.15,2013-07-02 09:24:00,
2013-07-02 03:29:00,45.7,43.5,30.05,ESE,123,0.0,0.0,92,0.00,,,0.01,Wunderground v.1.15,2013-07-02 09:29:00,
2013-07-02 03:35:00,45.5,43.6,30.04,ESE,117,0.0,1.0,93,0.00,,,0.01,Wunderground v.1.15,2013-07-02 09:35:00,
2013-07-02 03:41:00,45.6,43.7,30.04,ESE,107,1.0,1.0,93,0.00,,,0.01,Wunderground v.1.15,2013-07-02 09:41:00,
2013-07-02 03:46:00,45.6,43.7,30.05,ESE,108,0.0,0.0,93,0.00,,,0.01,Wunderground v.1.15,2013-07-02 09:46:00,
2013-07-02 03:52:00,45.3,43.4,30.05,ESE,121,0.0,1.0,93,0.00,,,0.01,Wunderground v.1.15,2013-07-02 09:52:00,
2013-07-02 03:58:00,45.3,43.4,30.05,ESE,113,0.0,1.0,93,0.00,,,0.01,Wunderground v.1.15,2013-07-02 09:58:00,
2013-07-02 04:03:00,45.4,43.5,30.05,ESE,113,0.0,1.0,93,0.00,,,0.01,Wunderground v.1.15,2013-07-02 10:03:00,
2013-07-02 04:10:00,45.2,43.0,30.05,ESE,114,1.0,2.0,92,0.00,,,0.01,Wunderground v.1.15,2013-07-02 10:10:00,
2013-07-02 04:15:00,45.7,42.9,30.05,ENE,78,1.0,2.0,90,0.00,,,0.01,Wunderground v.1.15,2013-07-02 10:15:00,
2013-07-02 04:20:00,46.2,43.1,30.05,East,95,1.0,1.0,89,0.00,,,0.01,Wunderground v.1.15,2013-07-02 10:20:00,
2013-07-02 04:26:00,46.3,43.2,30.05,ESE,116,1.0,1.0,89,0.00,,,0.01,Wunderground v.1.15,2013-07-02 10:26:00,
2013-07-02 04:31:00,45.6,43.1,30.05,ESE,115,0.0,1.0,91,0.00,,,0.01,Wunderground v.1.15,2013-07-02 10:31:00,
2013-07-02 04:36:00,45.0,42.2,30.05,ESE,117,1.0,1.0,90,0.00,,,0.01,Wunderground v.1.15,2013-07-02 10:36:00,
2013-07-02 04:42:00,45.3,42.5,30.05,ESE,116,1.0,1.0,90,0.00,,,0.01,Wunderground v.1.15,2013-07-02 10:42:00,
2013-07-02 04:47:00,45.1,42.3,30.05,ESE,115,0.0,0.0,90,0.00,,,0.01,Wunderground v.1.15,2013-07-02 10:47:00,
2013-07-02 04:52:00,45.2,41.9,30.05,ESE,119,0.0,2.0,88,0.00,,,0.01,Wunderground v.1.15,2013-07-02 10:52:00,
2013-07-02 04:58:00,45.5,42.4,30.06,SE,132,0.0,1.0,89,0.00,,,0.01,Wunderground v.1.15,2013-07-02 10:58:00,
2013-07-02 05:03:00,45.2,42.2,30.06,ESE,118,0.0,1.0,89,0.00,,,0.01,Wunderground v.1.15,2013-07-02 11:03:00,
2013-07-02 05:09:00,45.1,42.3,30.06,ESE,105,0.0,2.0,90,0.00,,,0.01,Wunderground v.1.15,2013-07-02 11:09:00,
2013-07-02 05:14:00,45.1,42.1,30.06,ESE,118,1.0,2.0,89,0.00,,,0.01,Wunderground v.1.15,2013-07-02 11:14:00,
2013-07-02 05:19:00,45.4,42.1,30.06,ESE,119,1.0,1.0,88,0.00,,,0.01,Wunderground v.1.15,2013-07-02 11:19:00,
2013-07-02 05:24:00,45.3,42.5,30.06,ESE,119,0.0,1.0,90,0.00,,,0.01,Wunderground v.1.15,2013-07-02 11:24:00,
2013-07-02 05:30:00,44.9,41.9,30.06,ESE,119,0.0,0.0,89,0.00,,,0.01,Wunderground v.1.15,2013-07-02 11:30:00,
2013-07-02 05:35:00,45.1,42.1,30.06,ESE,117,0.0,1.0,89,0.00,,,0.01,Wunderground v.1.15,2013-07-02 11:35:00,
2013-07-02 05:41:00,45.7,41.8,30.06,ESE,116,0.0,1.0,86,0.00,,,0.01,Wunderground v.1.15,2013-07-02 11:41:00,
2013-07-02 05:46:00,45.7,42.3,30.06,ESE,118,0.0,1.0,88,0.00,,,0.01,Wunderground v.1.15,2013-07-02 11:46:00,
2013-07-02 05:51:00,45.4,42.1,30.06,ESE,118,0.0,1.0,88,0.00,,,0.01,Wunderground v.1.15,2013-07-02 11:51:00,
2013-07-02 05:57:00,45.7,41.8,30.06,NE,39,1.0,1.0,86,0.00,,,0.01,Wunderground v.1.15,2013-07-02 11:57:00,
2013-07-02 06:02:00,46.2,41.9,30.06,NNE,25,1.0,2.0,85,0.00,,,0.01,Wunderground v.1.15,2013-07-02 12:02:00,
2013-07-02 06:08:00,46.0,42.3,30.06,NNE,25,0.0,0.0,87,0.00,,,0.01,Wunderground v.1.15,2013-07-02 12:08:00,
2013-07-02 06:13:00,45.7,42.3,30.06,ESE,110,0.0,2.0,88,0.00,,,0.01,Wunderground v.1.15,2013-07-02 12:13:00,
2013-07-02 06:18:00,46.0,41.7,30.06,East,98,1.0,1.0,85,0.00,,,0.01,Wunderground v.1.15,2013-07-02 12:18:00,
2013-07-02 06:24:00,46.7,41.5,30.06,East,86,1.0,1.0,82,0.00,,,0.01,Wunderground v.1.15,2013-07-02 12:24:00,
2013-07-02 06:29:00,47.2,42.0,30.06,East,100,1.0,2.0,82,0.00,,,0.01,Wunderground v.1.15,2013-07-02 12:29:00,
2013-07-02 06:35:00,46.8,42.5,30.06,ESE,107,0.0,0.0,85,0.00,,,0.01,Wunderground v.1.15,2013-07-02 12:35:00,
2013-07-02 06:40:00,46.4,41.8,30.06,ESE,103,1.0,2.0,84,0.00,,,0.01,Wunderground v.1.15,2013-07-02 12:40:00,
2013-07-02 06:46:00,47.5,42.0,30.06,East,101,2.0,2.0,81,0.00,,,0.01,Wunderground v.1.15,2013-07-02 12:46:00,
2013-07-02 06:52:00,48.7,41.5,30.06,East,96,1.0,2.0,76,0.00,,,0.01,Wunderground v.1.15,2013-07-02 12:52:00,
2013-07-02 06:57:00,49.0,41.4,30.06,ESE,102,1.0,1.0,75,0.00,,,0.01,Wunderground v.1.15,2013-07-02 12:57:00,
2013-07-02 07:03:00,49.3,41.7,30.06,East,97,1.0,1.0,75,0.00,,,0.01,Wunderground v.1.15,2013-07-02 13:03:00,
2013-07-02 07:08:00,49.7,42.1,30.06,East,83,1.0,2.0,75,0.00,,,0.01,Wunderground v.1.15,2013-07-02 13:08:00,
2013-07-02 07:13:00,49.4,41.5,30.06,East,84,0.0,2.0,74,0.00,,,0.01,Wunderground v.1.15,2013-07-02 13:13:00,
2013-07-02 07:18:00,49.6,42.3,30.06,East,84,0.0,1.0,76,0.00,,,0.01,Wunderground v.1.15,2013-07-02 13:18:00,
2013-07-02 07:24:00,50.0,41.0,30.06,East,83,0.0,1.0,71,0.00,,,0.01,Wunderground v.1.15,2013-07-02 13:24:00,
2013-07-02 07:30:00,50.1,43.2,30.06,East,83,0.0,1.0,77,0.00,,,0.01,Wunderground v.1.15,2013-07-02 13:30:00,
2013-07-02 07:36:00,50.1,42.5,30.06,East,84,0.0,1.0,75,0.00,,,0.01,Wunderground v.1.15,2013-07-02 13:36:00,
2013-07-02 07:41:00,50.9,42.6,30.06,East,84,0.0,1.0,73,0.00,,,0.01,Wunderground v.1.15,2013-07-02 13:41:00,
2013-07-02 07:47:00,52.4,42.1,30.06,ESE,118,1.0,2.0,68,0.00,,,0.01,Wunderground v.1.15,2013-07-02 13:47:00,
2013-07-02 07:54:00,54.3,42.4,30.06,ENE,73,1.0,3.0,64,0.00,,,0.01,Wunderground v.1.15,2013-07-02 13:54:00,
2013-07-02 07:59:00,55.8,44.2,30.06,NNE,22,1.0,1.0,65,0.00,,,0.01,Wunderground v.1.15,2013-07-02 13:59:00,
2013-07-02 08:04:00,56.4,44.8,30.06,East,101,0.0,1.0,65,0.00,,,0.01,Wunderground v.1.15,2013-07-02 14:04:00,
2013-07-02 08:10:00,56.9,44.0,30.06,NNE,33,0.0,1.0,62,0.00,,,0.01,Wunderground v.1.15,2013-07-02 14:10:00,
2013-07-02 08:15:00,56.7,45.1,30.06,NNE,29,0.0,0.0,65,0.00,,,0.01,Wunderground v.1.15,2013-07-02 14:15:00,
2013-07-02 08:20:00,56.5,41.9,30.06,ESE,115,0.0,1.0,58,0.00,,,0.01,Wunderground v.1.15,2013-07-02 14:20:00,
2013-07-02 08:26:00,57.7,43.9,30.06,East,92,1.0,1.0,60,0.00,,,0.01,Wunderground v.1.15,2013-07-02 14:26:00,
2013-07-02 08:31:00,58.9,46.3,30.05,East,92,1.0,1.0,63,0.00,,,0.01,Wunderground v.1.15,2013-07-02 14:31:00,
2013-07-02 08:36:00,59.6,47.0,30.05,East,92,0.0,0.0,63,0.00,,,0.01,Wunderground v.1.15,2013-07-02 14:36:00,
2013-07-02 08:42:00,59.5,46.9,30.05,East,98,0.0,2.0,63,0.00,,,0.01,Wunderground v.1.15,2013-07-02 14:42:00,
2013-07-02 08:47:00,58.4,45.8,30.05,NE,41,1.0,1.0,63,0.00,,,0.01,Wunderground v.1.15,2013-07-02 14:47:00,
2013-07-02 08:52:00,57.7,45.6,30.05,NE,41,1.0,1.0,64,0.00,,,0.01,Wunderground v.1.15,2013-07-02 14:52:00,
2013-07-02 08:58:00,56.7,45.1,30.05,NE,43,0.0,1.0,65,0.00,,,0.01,Wunderground v.1.15,2013-07-02 14:58:00,
2013-07-02 09:03:00,56.7,45.5,30.05,SSE,167,0.0,2.0,66,0.00,,,0.01,Wunderground v.1.15,2013-07-02 15:03:00,
2013-07-02 09:09:00,57.4,42.7,30.05,South,169,0.0,0.0,58,0.00,,,0.01,Wunderground v.1.15,2013-07-02 15:09:00,
2013-07-02 09:14:00,58.0,44.6,30.05,SW,214,0.0,2.0,61,0.00,,,0.01,Wunderground v.1.15,2013-07-02 15:14:00,
2013-07-02 09:20:00,58.4,47.1,30.05,SSE,164,0.0,1.0,66,0.00,,,0.01,Wunderground v.1.15,2013-07-02 15:20:00,
2013-07-02 09:25:00,58.9,43.7,30.04,WSW,252,1.0,1.0,57,0.00,,,0.01,Wunderground v.1.15,2013-07-02 15:25:00,
2013-07-02 09:31:00,59.4,42.7,30.04,NW,324,1.0,3.0,54,0.00,,,0.01,Wunderground v.1.15,2013-07-02 15:31:00,
2013-07-02 09:36:00,60.5,40.7,30.04,WNW,295,2.0,4.0,48,0.00,,,0.01,Wunderground v.1.15,2013-07-02 15:36:00,
2013-07-02 09:42:00,60.9,43.1,30.04,SW,236,2.0,4.0,52,0.00,,,0.01,Wunderground v.1.15,2013-07-02 15:42:00,
2013-07-02 09:47:00,61.2,39.7,30.04,WNW,295,2.0,4.0,45,0.00,,,0.01,Wunderground v.1.15,2013-07-02 15:47:00,
2013-07-02 09:52:00,61.7,41.8,30.03,NW,304,2.0,4.0,48,0.00,,,0.01,Wunderground v.1.15,2013-07-02 15:52:00,
2013-07-02 09:58:00,62.2,39.4,30.03,NNW,336,2.0,3.0,43,0.00,,,0.01,Wunderground v.1.15,2013-07-02 15:58:00,
2013-07-02 10:03:00,62.8,41.1,30.03,WSW,252,1.0,3.0,45,0.00,,,0.01,Wunderground v.1.15,2013-07-02 16:03:00,
2013-07-02 10:09:00,63.4,42.8,30.03,WNW,298,1.0,3.0,47,0.00,,,0.01,Wunderground v.1.15,2013-07-02 16:09:00,
2013-07-02 10:14:00,63.5,39.4,30.03,WNW,285,2.0,4.0,41,0.00,,,0.01,Wunderground v.1.15,2013-07-02 16:14:00,
2013-07-02 10:19:00,63.5,38.7,30.03,WNW,292,2.0,3.0,40,0.00,,,0.01,Wunderground v.1.15,2013-07-02 16:19:00,
2013-07-02 10:24:00,63.5,41.8,30.03,WSW,251,2.0,5.0,45,0.00,,,0.01,Wunderground v.1.15,2013-07-02 16:24:00,
2013-07-02 10:30:00,64.3,40.1,30.03,WSW,257,2.0,3.0,41,0.00,,,0.01,Wunderground v.1.15,2013-07-02 16:30:00,
2013-07-02 10:35:00,65.3,44.0,30.03,WSW,251,1.0,2.0,46,0.00,,,0.01,Wunderground v.1.15,2013-07-02 16:35:00,
2013-07-02 10:40:00,65.5,41.8,30.03,NW,311,1.0,4.0,42,0.00,,,0.01,Wunderground v.1.15,2013-07-02 16:40:00,
2013-07-02 10:46:00,65.8,42.1,30.03,WNW,297,2.0,2.0,42,0.00,,,0.01,Wunderground v.1.15,2013-07-02 16:46:00,
2013-07-02 10:52:00,65.5,38.5,30.03,WNW,302,3.0,7.0,37,0.00,,,0.01,Wunderground v.1.15,2013-07-02 16:52:00,
2013-07-02 10:57:00,65.4,38.4,30.03,WNW,283,3.0,3.0,37,0.00,,,0.01,Wunderground v.1.15,2013-07-02 16:57:00,
2013-07-02 11:03:00,65.3,38.3,30.03,SSE,165,1.0,3.0,37,0.00,,,0.01,Wunderground v.1.15,2013-07-02 17:03:00,
2013-07-02 11:08:00,64.6,39.1,30.03,West,280,1.0,2.0,39,0.00,,,0.01,Wunderground v.1.15,2013-07-02 17:08:00,
2013-07-02 11:13:00,64.3,40.7,30.03,WSW,255,1.0,2.0,42,0.00,,,0.01,Wunderground v.1.15,2013-07-02 17:13:00,
2013-07-02 11:19:00,64.4,41.4,30.03,NNW,338,1.0,2.0,43,0.00,,,0.01,Wunderground v.1.15,2013-07-02 17:19:00,
2013-07-02 11:24:00,64.9,39.3,30.03,WNW,283,1.0,3.0,39,0.00,,,0.01,Wunderground v.1.15,2013-07-02 17:24:00,
2013-07-02 11:29:00,65.1,38.8,30.03,SW,234,1.0,3.0,38,0.00,,,0.01,Wunderground v.1.15,2013-07-02 17:29:00,
2013-07-02 11:34:00,64.5,39.6,30.03,NW,321,1.0,3.0,40,0.00,,,0.01,Wunderground v.1.15,2013-07-02 17:34:00,
2013-07-02 11:40:00,64.9,38.7,30.03,WSW,245,1.0,2.0,38,0.00,,,0.01,Wunderground v.1.15,2013-07-02 17:40:00,
2013-07-02 11:45:00,65.6,40.6,30.03,WSW,246,2.0,3.0,40,0.00,,,0.01,Wunderground v.1.15,2013-07-02 17:45:00,
2013-07-02 11:50:00,65.7,40.7,30.03,SW,236,3.0,5.0,40,0.00,,,0.01,Wunderground v.1.15,2013-07-02 17:50:00,
2013-07-02 11:56:00,66.1,41.1,30.02,SW,233,4.0,4.0,40,0.00,,,0.01,Wunderground v.1.15,2013-07-02 17:56:00,
2013-07-02 12:01:00,66.3,42.5,30.02,SW,232,4.0,8.0,42,0.00,,,0.01,Wunderground v.1.15,2013-07-02 18:01:00,
2013-07-02 12:07:00,67.1,43.2,30.02,West,266,4.0,4.0,42,0.00,,,0.01,Wunderground v.1.15,2013-07-02 18:07:00,
2013-07-02 12:12:00,66.5,41.4,30.02,SSW,204,3.0,6.0,40,0.00,,,0.01,Wunderground v.1.15,2013-07-02 18:12:00,
2013-07-02 12:18:00,66.1,40.4,30.02,SSE,148,5.0,7.0,39,0.00,,,0.01,Wunderground v.1.15,2013-07-02 18:18:00,
2013-07-02 12:24:00,65.8,42.7,30.02,SE,138,5.0,7.0,43,0.00,,,0.01,Wunderground v.1.15,2013-07-02 18:24:00,
2013-07-02 12:29:00,66.7,42.2,30.02,SW,222,4.0,5.0,41,0.00,,,0.01,Wunderground v.1.15,2013-07-02 18:29:00,
2013-07-02 12:34:00,67.2,42.0,30.02,ESE,107,3.0,5.0,40,0.00,,,0.01,Wunderground v.1.15,2013-07-02 18:34:00,
2013-07-02 12:40:00,67.2,42.0,30.01,South,169,3.0,4.0,40,0.00,,,0.01,Wunderground v.1.15,2013-07-02 18:40:00,
2013-07-02 12:46:00,67.7,43.1,30.01,WSW,245,2.0,3.0,41,0.00,,,0.01,Wunderground v.1.15,2013-07-02 18:46:00,
2013-07-02 12:52:00,67.8,43.2,30.01,SSE,165,4.0,11.0,41,0.00,,,0.01,Wunderground v.1.15,2013-07-02 18:52:00,
2013-07-02 12:57:00,68.1,41.5,30.01,ESE,110,5.0,8.0,38,0.00,,,0.01,Wunderground v.1.15,2013-07-02 18:57:00,
2013-07-02 13:03:00,67.7,42.5,30.01,SE,145,4.0,8.0,40,0.00,,,0.01,Wunderground v.1.15,2013-07-02 19:03:00,
2013-07-02 13:08:00,67.9,42.0,30.01,WSW,243,3.0,4.0,39,0.00,,,0.01,Wunderground v.1.15,2013-07-02 19:08:00,
2013-07-02 13:14:00,67.4,42.2,30.01,WSW,244,4.0,7.0,40,0.00,,,0.01,Wunderground v.1.15,2013-07-02 19:14:00,
2013-07-02 13:19:00,68.7,42.7,30.00,South,173,4.0,6.0,39,0.00,,,0.01,Wunderground v.1.15,2013-07-02 19:19:00,
2013-07-02 13:25:00,69.6,40.7,30.00,SE,129,4.0,4.0,35,0.00,,,0.01,Wunderground v.1.15,2013-07-02 19:25:00,
2013-07-02 13:30:00,69.5,44.8,30.01,South,170,4.0,6.0,41,0.00,,,0.01,Wunderground v.1.15,2013-07-02 19:30:00,
2013-07-02 13:36:00,67.9,43.3,30.00,SSW,197,4.0,4.0,41,0.00,,,0.01,Wunderground v.1.15,2013-07-02 19:36:00,
2013-07-02 13:41:00,67.7,43.8,30.00,South,169,4.0,6.0,42,0.00,,,0.01,Wunderground v.1.15,2013-07-02 19:41:00,
2013-07-02 13:46:00,68.4,45.6,30.00,East,99,3.0,3.0,44,0.00,,,0.01,Wunderground v.1.15,2013-07-02 19:46:00,
2013-07-02 13:52:00,68.6,42.0,30.00,SSE,166,3.0,5.0,38,0.00,,,0.01,Wunderground v.1.15,2013-07-02 19:52:00,
2013-07-02 13:58:00,69.1,43.8,30.00,WSW,249,3.0,5.0,40,0.00,,,0.01,Wunderground v.1.15,2013-07-02 19:58:00,
2013-07-02 14:03:00,69.2,44.5,30.00,SSE,163,3.0,8.0,41,0.00,,,0.01,Wunderground v.1.15,2013-07-02 20:03:00,
2013-07-02 14:09:00,70.1,44.0,29.99,WSW,239,3.0,3.0,39,0.00,,,0.01,Wunderground v.1.15,2013-07-02 20:09:00,
2013-07-02 14:14:00,70.2,43.4,29.99,WSW,250,3.0,4.0,38,0.00,,,0.01,Wunderground v.1.15,2013-07-02 20:14:00,
2013-07-02 14:19:00,69.2,43.8,30.00,SSE,163,4.0,7.0,40,0.00,,,0.01,Wunderground v.1.15,2013-07-02 20:19:00,
2013-07-02 14:24:00,67.5,45.4,29.99,ENE,71,4.0,9.0,45,0.00,,,0.01,Wunderground v.1.15,2013-07-02 20:24:00,
2013-07-02 14:30:00,66.8,45.9,29.99,ESE,117,5.0,9.0,47,0.00,,,0.01,Wunderground v.1.15,2013-07-02 20:30:00,
2013-07-02 14:35:00,67.0,45.5,29.99,ESE,117,4.0,7.0,46,0.00,,,0.01,Wunderground v.1.15,2013-07-02 20:35:00,
2013-07-02 14:41:00,66.1,45.8,29.99,East,94,5.0,9.0,48,0.00,,,0.01,Wunderground v.1.15,2013-07-02 20:41:00,
2013-07-02 14:46:00,66.1,44.7,29.99,SE,137,5.0,10.0,46,0.00,,,0.01,Wunderground v.1.15,2013-07-02 20:46:00,
2013-07-02 14:52:00,66.4,44.4,29.98,SSW,194,4.0,10.0,45,0.00,,,0.01,Wunderground v.1.15,2013-07-02 20:52:00,
2013-07-02 14:59:00,67.0,44.4,29.98,WSW,243,3.0,4.0,44,0.00,,,0.01,Wunderground v.1.15,2013-07-02 20:59:00,
2013-07-02 15:04:00,67.6,46.6,29.98,SSE,165,3.0,4.0,47,0.00,,,0.01,Wunderground v.1.15,2013-07-02 21:04:00,
2013-07-02 15:09:00,68.4,45.0,29.97,West,278,3.0,5.0,43,0.00,,,0.01,Wunderground v.1.15,2013-07-02 21:09:00,
2013-07-02 15:15:00,69.4,46.5,29.98,ESE,107,3.0,4.0,44,0.00,,,0.01,Wunderground v.1.15,2013-07-02 21:15:00,
2013-07-02 15:20:00,69.0,44.3,29.97,ESE,110,3.0,4.0,41,0.00,,,0.01,Wunderground v.1.15,2013-07-02 21:20:00,
2013-07-02 15:26:00,67.7,43.8,29.97,SE,136,4.0,4.0,42,0.00,,,0.01,Wunderground v.1.15,2013-07-02 21:26:00,
2013-07-02 15:32:00,69.1,43.1,29.97,SW,236,3.0,4.0,39,0.00,,,0.01,Wunderground v.1.15,2013-07-02 21:32:00,
2013-07-02 15:37:00,68.5,45.7,29.96,NNW,333,3.0,5.0,44,0.00,,,0.01,Wunderground v.1.15,2013-07-02 21:37:00,
2013-07-02 15:43:00,67.5,46.6,29.96,SE,134,3.0,9.0,47,0.00,,,0.01,Wunderground v.1.15,2013-07-02 21:43:00,
2013-07-02 15:49:00,66.7,46.9,29.97,ESE,114,3.0,8.0,49,0.00,,,0.01,Wunderground v.1.15,2013-07-02 21:49:00,
2013-07-02 15:54:00,65.8,46.6,29.97,SSE,158,3.0,8.0,50,0.00,,,0.01,Wunderground v.1.15,2013-07-02 21:54:00,
2013-07-02 15:59:00,66.0,47.3,29.97,WNW,283,3.0,5.0,51,0.00,,,0.01,Wunderground v.1.15,2013-07-02 21:59:00,
2013-07-02 16:05:00,66.7,46.4,29.96,East,88,2.0,5.0,48,0.00,,,0.01,Wunderground v.1.15,2013-07-02 22:05:00,
2013-07-02 16:11:00,67.7,46.2,29.96,ENE,69,2.0,5.0,46,0.00,,,0.01,Wunderground v.1.15,2013-07-02 22:11:00,
2013-07-02 16:16:00,69.3,47.0,29.95,WSW,238,2.0,3.0,45,0.00,,,0.01,Wunderground v.1.15,2013-07-02 22:16:00,
2013-07-02 16:22:00,69.5,45.4,29.96,SSE,155,2.0,5.0,42,0.00,,,0.01,Wunderground v.1.15,2013-07-02 22:22:00,
2013-07-02 16:28:00,68.6,45.8,29.95,North,11,3.0,6.0,44,0.00,,,0.01,Wunderground v.1.15,2013-07-02 22:28:00,
2013-07-02 16:33:00,67.1,45.6,29.96,ENE,69,4.0,6.0,46,0.00,,,0.01,Wunderground v.1.15,2013-07-02 22:33:00,
2013-07-02 16:39:00,66.1,46.4,29.95,East,97,3.0,4.0,49,0.00,,,0.01,Wunderground v.1.15,2013-07-02 22:39:00,
2013-07-02 16:45:00,66.5,46.2,29.95,SE,134,3.0,3.0,48,0.00,,,0.01,Wunderground v.1.15,2013-07-02 22:45:00,
2013-07-02 16:50:00,66.0,46.3,29.95,ESE,103,3.0,4.0,49,0.00,,,0.01,Wunderground v.1.15,2013-07-02 22:50:00,
2013-07-02 16:56:00,65.5,46.4,29.95,SE,125,4.0,6.0,50,0.00,,,0.01,Wunderground v.1.15,2013-07-02 22:56:00,
2013-07-02 17:01:00,64.7,47.2,29.96,ESE,113,4.0,8.0,53,0.00,,,0.01,Wunderground v.1.15,2013-07-02 23:01:00,
2013-07-02 17:07:00,63.8,47.3,29.96,SE,135,3.0,4.0,55,0.00,,,0.01,Wunderground v.1.15,2013-07-02 23:07:00,
2013-07-02 17:12:00,64.0,47.5,29.96,SSE,165,3.0,4.0,55,0.00,,,0.01,Wunderground v.1.15,2013-07-02 23:12:00,
2013-07-02 17:18:00,64.6,47.6,29.96,SSW,195,2.0,2.0,54,0.00,,,0.01,Wunderground v.1.15,2013-07-02 23:18:00,
2013-07-02 17:24:00,64.5,47.5,29.96,WSW,244,1.0,3.0,54,0.00,,,0.01,Wunderground v.1.15,2013-07-02 23:24:00,
2013-07-02 17:29:00,64.9,47.4,29.95,ESE,119,2.0,10.0,53,0.00,,,0.01,Wunderground v.1.15,2013-07-02 23:29:00,
2013-07-02 17:31:00,64.6,46.1,29.95,South,188,3.0,10.0,51,0.00,,,0.01,Wunderground v.1.15,2013-07-02 23:31:00,
2013-07-02 17:36:00,64.5,47.0,29.95,SE,141,4.0,4.0,53,0.00,,,0.01,Wunderground v.1.15,2013-07-02 23:36:00,
2013-07-02 17:42:00,65.9,47.8,29.95,WSW,245,4.0,5.0,52,0.00,,,0.01,Wunderground v.1.15,2013-07-02 23:42:00,
2013-07-02 17:47:00,65.9,47.8,29.95,SSE,153,4.0,4.0,52,0.00,,,0.01,Wunderground v.1.15,2013-07-02 23:47:00,
2013-07-02 17:53:00,64.7,46.7,29.95,SE,145,3.0,5.0,52,0.00,,,0.01,Wunderground v.1.15,2013-07-02 23:53:00,
2013-07-02 17:59:00,64.1,46.6,29.96,SE,128,3.0,5.0,53,0.00,,,0.01,Wunderground v.1.15,2013-07-02 23:59:00,
2013-07-02 18:01:00,64.1,46.6,29.96,SW,218,3.0,5.0,53,0.00,,,0.01,Wunderground v.1.15,2013-07-03 00:01:00,
2013-07-02 18:06:00,63.9,45.9,29.96,SE,145,3.0,4.0,52,0.00,,,0.01,Wunderground v.1.15,2013-07-03 00:06:00,
2013-07-02 18:09:00,63.8,46.3,29.96,SSE,153,3.0,4.0,53,0.00,,,0.01,Wunderground v.1.15,2013-07-03 00:09:00,
2013-07-02 18:14:00,63.6,45.6,29.96,SE,137,3.0,6.0,52,0.00,,,0.01,Wunderground v.1.15,2013-07-03 00:14:00,
2013-07-02 18:20:00,64.0,46.0,29.96,SE,136,3.0,4.0,52,0.00,,,0.01,Wunderground v.1.15,2013-07-03 00:20:00,
2013-07-02 18:25:00,64.6,46.1,29.96,SE,146,3.0,3.0,51,0.00,,,0.01,Wunderground v.1.15,2013-07-03 00:25:00,
2013-07-02 18:29:00,64.5,46.5,29.96,South,174,3.0,5.0,52,0.00,,,0.01,Wunderground v.1.15,2013-07-03 00:29:00,
2013-07-02 18:34:00,64.1,46.1,29.95,SE,138,4.0,5.0,52,0.00,,,0.01,Wunderground v.1.15,2013-07-03 00:34:00,
2013-07-02 18:39:00,63.5,46.1,29.96,SSE,155,4.0,4.0,53,0.00,,,0.01,Wunderground v.1.15,2013-07-03 00:39:00,
2013-07-02 18:45:00,63.1,45.7,29.96,ENE,70,3.0,3.0,53,0.00,,,0.01,Wunderground v.1.15,2013-07-03 00:45:00,
2013-07-02 18:50:00,62.7,45.8,29.96,ESE,119,3.0,4.0,54,0.00,,,0.01,Wunderground v.1.15,2013-07-03 00:50:00,
2013-07-02 18:55:00,62.1,45.2,29.96,East,98,4.0,4.0,54,0.00,,,0.01,Wunderground v.1.15,2013-07-03 00:55:00,
2013-07-02 18:59:00,61.6,45.3,29.97,ESE,102,6.0,9.0,55,0.00,,,0.01,Wunderground v.1.15,2013-07-03 00:59:00,
2013-07-02 19:00:00,61.6,45.3,29.96,East,98,6.0,9.0,55,0.00,,,0.01,Wunderground v.1.15,2013-07-03 01:00:00,
2013-07-02 19:05:00,61.3,45.5,29.96,ESE,115,6.0,9.0,56,0.00,,,0.01,Wunderground v.1.15,2013-07-03 01:05:00,
2013-07-02 19:10:00,61.1,45.7,29.97,ESE,119,5.0,9.0,57,0.00,,,0.01,Wunderground v.1.15,2013-07-03 01:10:00,
2013-07-02 19:16:00,60.7,45.4,29.96,SSE,149,5.0,5.0,57,0.00,,,0.01,Wunderground v.1.15,2013-07-03 01:16:00,
2013-07-02 19:21:00,60.6,45.7,29.96,SE,125,5.0,7.0,58,0.00,,,0.01,Wunderground v.1.15,2013-07-03 01:21:00,
2013-07-02 19:26:00,60.4,46.0,29.96,ENE,68,3.0,3.0,59,0.00,,,0.01,Wunderground v.1.15,2013-07-03 01:26:00,
2013-07-02 19:31:00,60.3,46.4,29.97,East,101,2.0,4.0,60,0.00,,,0.01,Wunderground v.1.15,2013-07-03 01:31:00,
2013-07-02 19:36:00,60.1,46.2,29.96,East,97,2.0,2.0,60,0.00,,,0.01,Wunderground v.1.15,2013-07-03 01:36:00,
2013-07-02 19:42:00,60.1,46.2,29.96,SE,127,1.0,2.0,60,0.00,,,0.01,Wunderground v.1.15,2013-07-03 01:42:00,
2013-07-02 19:47:00,60.0,46.1,29.96,SE,143,1.0,1.0,60,0.00,,,0.01,Wunderground v.1.15,2013-07-03 01:47:00,
2013-07-02 19:52:00,60.0,46.1,29.96,SE,134,1.0,1.0,60,0.00,,,0.01,Wunderground v.1.15,2013-07-03 01:52:00,
2013-07-02 19:58:00,60.0,46.1,29.96,ESE,122,1.0,3.0,60,0.00,,,0.01,Wunderground v.1.15,2013-07-03 01:58:00,
2013-07-02 20:03:00,60.0,46.5,29.96,SE,126,1.0,3.0,61,0.00,,,0.01,Wunderground v.1.15,2013-07-03 02:03:00,
2013-07-02 20:09:00,59.8,46.3,29.96,SE,143,1.0,3.0,61,0.00,,,0.01,Wunderground v.1.15,2013-07-03 02:09:00,
2013-07-02 20:16:00,59.5,46.0,29.96,SE,145,2.0,2.0,61,0.00,,,0.01,Wunderground v.1.15,2013-07-03 02:16:00,
2013-07-02 20:21:00,59.3,45.8,29.96,SE,128,2.0,4.0,61,0.00,,,0.01,Wunderground v.1.15,2013-07-03 02:21:00,
2013-07-02 20:27:00,59.2,46.2,29.96,SSE,147,2.0,3.0,62,0.00,,,0.01,Wunderground v.1.15,2013-07-03 02:27:00,
2013-07-02 20:32:00,59.0,46.4,29.96,ESE,115,2.0,3.0,63,0.00,,,0.01,Wunderground v.1.15,2013-07-03 02:32:00,
2013-07-02 20:38:00,59.0,46.4,29.96,SE,128,2.0,2.0,63,0.00,,,0.01,Wunderground v.1.15,2013-07-03 02:38:00,
2013-07-02 20:39:00,59.0,46.4,29.96,SSE,150,2.0,2.0,63,0.00,,,0.01,Wunderground v.1.15,2013-07-03 02:39:00,
2013-07-02 20:44:00,58.8,46.2,29.96,ESE,105,2.0,3.0,63,0.00,,,0.01,Wunderground v.1.15,2013-07-03 02:44:00,
2013-07-02 20:47:00,58.7,46.1,29.96,SE,142,2.0,2.0,63,0.00,,,0.01,Wunderground v.1.15,2013-07-03 02:47:00,
2013-07-02 20:53:00,58.6,46.0,29.95,SSE,160,2.0,3.0,63,0.00,,,0.01,Wunderground v.1.15,2013-07-03 02:53:00,
2013-07-02 20:58:00,58.4,45.8,29.95,SE,134,2.0,2.0,63,0.00,,,0.01,Wunderground v.1.15,2013-07-03 02:58:00,
2013-07-02 21:04:00,58.3,46.2,29.95,SSE,167,2.0,3.0,64,0.00,,,0.01,Wunderground v.1.15,2013-07-03 03:04:00,
2013-07-02 21:11:00,58.1,45.6,29.96,SSE,166,2.0,2.0,63,0.00,,,0.01,Wunderground v.1.15,2013-07-03 03:11:00,
2013-07-02 21:16:00,57.9,45.8,29.95,East,94,2.0,4.0,64,0.00,,,0.01,Wunderground v.1.15,2013-07-03 03:16:00,
2013-07-02 21:21:00,57.8,45.7,29.96,SSE,152,2.0,4.0,64,0.00,,,0.01,Wunderground v.1.15,2013-07-03 03:21:00,
2013-07-02 21:22:00,57.8,45.7,29.96,SE,146,2.0,4.0,64,0.00,,,0.01,Wunderground v.1.15,2013-07-03 03:22:00,
2013-07-02 21:28:00,57.3,46.0,29.96,SSE,159,0.0,1.0,66,0.00,,,0.01,Wunderground v.1.15,2013-07-03 03:28:00,
2013-07-02 21:33:00,56.6,45.8,29.96,SSE,159,0.0,1.0,67,0.00,,,0.01,Wunderground v.1.15,2013-07-03 03:33:00,
2013-07-02 21:38:00,55.9,45.9,29.96,South,173,0.0,1.0,69,0.00,,,0.01,Wunderground v.1.15,2013-07-03 03:38:00,
2013-07-02 21:43:00,55.3,45.7,29.96,South,173,0.0,1.0,70,0.00,,,0.01,Wunderground v.1.15,2013-07-03 03:43:00,
2013-07-02 21:48:00,54.8,45.6,29.96,ESE,115,0.0,0.0,71,0.00,,,0.01,Wunderground v.1.15,2013-07-03 03:48:00,
2013-07-02 21:51:00,54.7,45.5,29.96,ESE,115,0.0,0.0,71,0.00,,,0.01,Wunderground v.1.15,2013-07-03 03:51:00,
2013-07-02 21:56:00,54.5,45.3,29.96,ESE,108,0.0,1.0,71,0.00,,,0.01,Wunderground v.1.15,2013-07-03 03:56:00,
2013-07-02 22:01:00,54.3,45.5,29.96,SE,126,1.0,2.0,72,0.00,,,0.01,Wunderground v.1.15,2013-07-03 04:01:00,
2013-07-02 22:02:00,54.3,45.5,29.96,ESE,110,1.0,2.0,72,0.00,,,0.01,Wunderground v.1.15,2013-07-03 04:02:00,
2013-07-02 22:07:00,54.3,45.1,29.96,ESE,120,1.0,1.0,71,0.00,,,0.01,Wunderground v.1.15,2013-07-03 04:07:00,
2013-07-02 22:10:00,54.3,45.1,29.96,SE,129,1.0,1.0,71,0.00,,,0.01,Wunderground v.1.15,2013-07-03 04:10:00,
2013-07-02 22:12:00,54.4,45.2,29.96,SE,129,1.0,1.0,71,0.00,,,0.01,Wunderground v.1.15,2013-07-03 04:12:00,
2013-07-02 22:15:00,54.3,45.5,29.96,ESE,115,0.0,1.0,72,0.00,,,0.01,Wunderground v.1.15,2013-07-03 04:15:00,
2013-07-02 22:21:00,53.7,44.5,29.96,ESE,123,0.0,2.0,71,0.00,,,0.01,Wunderground v.1.15,2013-07-03 04:21:00,
2013-07-02 22:26:00,53.5,44.7,29.96,ESE,116,1.0,1.0,72,0.00,,,0.01,Wunderground v.1.15,2013-07-03 04:26:00,
2013-07-02 22:32:00,53.5,44.7,29.96,ESE,118,1.0,2.0,72,0.00,,,0.01,Wunderground v.1.15,2013-07-03 04:32:00,
2013-07-02 22:33:00,53.5,44.7,29.96,ESE,119,1.0,2.0,72,0.00,,,0.01,Wunderground v.1.15,2013-07-03 04:33:00,
2013-07-02 22:35:00,53.4,44.6,29.96,ESE,118,1.0,1.0,72,0.00,,,0.01,Wunderground v.1.15,2013-07-03 04:35:00,
2013-07-02 22:40:00,53.0,44.6,29.96,ESE,118,0.0,1.0,73,0.00,,,0.01,Wunderground v.1.15,2013-07-03 04:40:00,
2013-07-02 22:46:00,52.3,44.3,29.96,SE,132,0.0,1.0,74,0.00,,,0.01,Wunderground v.1.15,2013-07-03 04:46:00,
2013-07-02 22:47:00,52.2,44.5,29.96,ESE,110,0.0,1.0,75,0.00,,,0.01,Wunderground v.1.15,2013-07-03 04:47:00,
2013-07-02 22:49:00,52.1,44.4,29.96,ESE,107,0.0,1.0,75,0.00,,,0.01,Wunderground v.1.15,2013-07-03 04:49:00,
2013-07-02 22:54:00,52.1,44.4,29.96,ESE,113,1.0,2.0,75,0.00,,,0.01,Wunderground v.1.15,2013-07-03 04:54:00,
2013-07-02 22:59:00,52.1,44.4,29.96,SE,132,1.0,1.0,75,0.00,,,0.01,Wunderground v.1.15,2013-07-03 04:59:00,
2013-07-02 23:00:00,52.1,44.4,29.95,SE,132,1.0,1.0,75,0.00,,,0.01,Wunderground v.1.15,2013-07-03 05:00:00,
2013-07-02 23:05:00,51.9,44.2,29.95,ESE,113,0.0,1.0,75,0.00,,,0.01,Wunderground v.1.15,2013-07-03 05:05:00,
2013-07-02 23:11:00,51.8,44.1,29.95,ESE,108,1.0,2.0,75,0.00,,,0.01,Wunderground v.1.15,2013-07-03 05:11:00,
2013-07-02 23:16:00,51.8,44.5,29.96,ESE,114,1.0,1.0,76,0.00,,,0.01,Wunderground v.1.15,2013-07-03 05:16:00,
2013-07-02 23:22:00,52.0,44.3,29.95,ENE,78,0.0,1.0,75,0.00,,,0.01,Wunderground v.1.15,2013-07-03 05:22:00,
2013-07-02 23:25:00,52.2,44.9,29.95,ENE,77,0.0,0.0,76,0.00,,,0.01,Wunderground v.1.15,2013-07-03 05:25:00,
2013-07-02 23:31:00,51.8,44.5,29.96,East,83,0.0,1.0,76,0.00,,,0.01,Wunderground v.1.15,2013-07-03 05:31:00,
2013-07-02 23:37:00,51.8,44.5,29.95,ESE,108,1.0,1.0,76,0.00,,,0.01,Wunderground v.1.15,2013-07-03 05:37:00,
2013-07-02 23:42:00,51.7,44.4,29.95,ESE,110,1.0,1.0,76,0.00,,,0.01,Wunderground v.1.15,2013-07-03 05:42:00,
2013-07-02 23:47:00,51.7,44.4,29.95,ESE,110,0.0,2.0,76,0.00,,,0.01,Wunderground v.1.15,2013-07-03 05:47:00,
2013-07-02 23:53:00,51.8,44.1,29.95,ESE,114,0.0,2.0,75,0.00,,,0.01,Wunderground v.1.15,2013-07-03 05:53:00,
2013-07-02 23:58:00,51.6,44.3,29.95,SSE,150,0.0,0.0,76,0.00,,,0.01,Wunderground v.1.15,2013-07-03 05:58:00,